createdAt,value
2018-12-22T00:02:25.240Z,95990.58
2018-12-22T00:04:55.066Z,95986.30
2018-12-22T00:07:24.952Z,95989.80
2018-12-22T00:09:54.967Z,95974.84
2018-12-22T00:12:24.762Z,95972.52
2018-12-22T00:14:54.524Z,95967.65
2018-12-22T00:17:24.834Z,95973.06
2018-12-22T00:20:28.760Z,95968.81
2018-12-22T00:22:59.204Z,95979.29
2018-12-22T00:25:29.128Z,95979.87
2018-12-22T00:27:59.459Z,95972.52
2018-12-22T00:30:30.222Z,95968.61
2018-12-22T00:33:00.186Z,95957.34
2018-12-22T00:35:30.126Z,95971.13
2018-12-22T00:38:00.039Z,95983.16
2018-12-22T00:40:29.911Z,95983.35
2018-12-22T00:42:59.833Z,95983.35
2018-12-22T00:45:29.885Z,95977.50
2018-12-22T00:47:59.688Z,95974.41
2018-12-22T00:50:29.571Z,95982.00
2018-12-22T00:52:59.526Z,95991.91
2018-12-22T00:55:29.395Z,95980.64
2018-12-22T01:01:34.354Z,95975.80
2018-12-22T01:04:04.841Z,95977.14
2018-12-22T01:06:35.040Z,95979.31
2018-12-22T01:09:06.882Z,95982.82
2018-12-22T01:11:37.739Z,95972.69
2018-12-22T01:18:27.798Z,95966.48
2018-12-22T01:20:57.666Z,95974.46
2018-12-22T01:23:27.475Z,95983.02
2018-12-22T01:25:57.931Z,95979.92
2018-12-22T01:28:27.917Z,95986.94
2018-12-22T01:30:57.739Z,95985.38
2018-12-22T01:33:27.526Z,96005.03
2018-12-22T01:35:57.530Z,95987.14
2018-12-22T01:38:27.361Z,95999.59
2018-12-22T01:40:57.152Z,95985.41
2018-12-22T01:43:26.945Z,96018.65
2018-12-22T01:45:56.771Z,95994.14
2018-12-22T01:48:26.590Z,96005.44
2018-12-22T01:50:56.435Z,96017.09
2018-12-22T01:53:26.245Z,96023.53
2018-12-22T01:55:56.033Z,96005.64
2018-12-22T01:58:25.849Z,96020.23
2018-12-22T02:00:55.666Z,96022.58
2018-12-22T02:03:25.506Z,95993.03
2018-12-22T02:05:55.383Z,96007.81
2018-12-22T02:08:25.226Z,96025.70
2018-12-22T02:10:55.760Z,96025.70
2018-12-22T02:13:26.553Z,96031.16
2018-12-22T02:15:56.401Z,96012.92
2018-12-22T02:18:26.243Z,96038.79
2018-12-22T02:20:56.055Z,96036.84
2018-12-22T02:23:26.097Z,96039.20
2018-12-22T02:25:55.971Z,96039.56
2018-12-22T02:28:25.950Z,96042.44
2018-12-22T02:30:55.865Z,96052.75
2018-12-22T02:33:25.721Z,96061.88
2018-12-22T02:35:55.688Z,96034.80
2018-12-22T02:38:25.557Z,96031.50
2018-12-22T02:40:55.501Z,96022.37
2018-12-22T02:43:25.507Z,96015.00
2018-12-22T02:45:56.082Z,96028.19
2018-12-22T02:49:26.943Z,96018.08
2018-12-22T02:51:57.681Z,96028.60
2018-12-22T02:54:27.674Z,96045.30
2018-12-22T02:56:57.525Z,96039.30
2018-12-22T02:59:27.365Z,96038.14
2018-12-22T03:01:57.375Z,96056.82
2018-12-22T03:04:27.509Z,96059.42
2018-12-22T03:06:57.359Z,96045.60
2018-12-22T03:09:27.194Z,96050.47
2018-12-22T03:11:57.345Z,96064.69
2018-12-22T03:14:27.469Z,96071.47
2018-12-22T03:16:57.286Z,96051.47
2018-12-22T03:19:27.386Z,96065.45
2018-12-22T03:21:57.283Z,96055.56
2018-12-22T03:24:27.306Z,96047.80
2018-12-22T03:26:57.180Z,96048.95
2018-12-22T03:29:27.020Z,96049.16
2018-12-22T03:31:56.822Z,96034.74
2018-12-22T03:34:27.039Z,96035.34
2018-12-22T03:36:56.942Z,96037.86
2018-12-22T03:39:27.540Z,96035.36
2018-12-22T03:41:58.118Z,96030.87
2018-12-22T03:44:28.043Z,96022.11
2018-12-22T03:46:57.848Z,96031.85
2018-12-22T03:49:28.756Z,96040.21
2018-12-22T03:51:58.605Z,96023.69
2018-12-22T03:54:28.638Z,96038.08
2018-12-22T03:56:59.066Z,96040.98
2018-12-22T04:00:25.299Z,96043.13
2018-12-22T04:02:55.490Z,96051.50
2018-12-22T04:05:25.432Z,96050.72
2018-12-22T04:07:55.358Z,96054.80
2018-12-22T04:10:25.164Z,96055.97
2018-12-22T04:12:55.217Z,96048.39
2018-12-22T04:15:25.120Z,96060.66
2018-12-22T04:17:55.149Z,96056.17
2018-12-22T04:20:25.308Z,96057.73
2018-12-22T04:22:55.660Z,96048.79
2018-12-22T04:25:26.225Z,96061.42
2018-12-22T04:27:56.073Z,96064.55
2018-12-22T04:31:27.537Z,96057.92
2018-12-22T04:33:57.419Z,96071.73
2018-12-22T04:36:27.766Z,96072.91
2018-12-22T04:38:57.784Z,96085.77
2018-12-22T04:41:27.593Z,96068.82
2018-12-22T04:43:57.597Z,96074.08
2018-12-22T04:46:27.569Z,96066.69
2018-12-22T04:48:57.555Z,96070.38
2018-12-22T04:51:27.617Z,96103.09
2018-12-22T04:53:57.553Z,96108.16
2018-12-22T04:56:27.606Z,96085.94
2018-12-22T04:58:57.714Z,96082.03
2018-12-22T05:01:27.970Z,96100.71
2018-12-22T05:03:58.019Z,96109.65
2018-12-22T05:06:28.081Z,96107.50
2018-12-22T05:08:58.152Z,96108.66
2018-12-22T05:11:27.980Z,96101.86
2018-12-22T05:13:58.621Z,96113.94
2018-12-22T05:16:29.274Z,96110.84
2018-12-22T05:18:59.193Z,96114.14
2018-12-22T05:22:26.075Z,96114.72
2018-12-22T05:24:55.935Z,96111.20
2018-12-22T05:27:25.855Z,96122.52
2018-12-22T05:29:55.702Z,96108.10
2018-12-22T05:32:25.583Z,96117.27
2018-12-22T05:34:55.849Z,96122.72
2018-12-22T05:37:26.433Z,96128.77
2018-12-22T05:39:57.619Z,96132.66
2018-12-22T05:42:27.586Z,96139.30
2018-12-22T05:44:58.008Z,96134.81
2018-12-22T05:47:28.123Z,96127.79
2018-12-22T05:49:58.180Z,96127.98
2018-12-22T05:52:28.581Z,96120.97
2018-12-22T05:54:58.597Z,96118.84
2018-12-22T05:57:28.789Z,96117.69
2018-12-22T06:00:00.675Z,96116.71
2018-12-22T06:02:30.455Z,96122.75
2018-12-22T06:05:00.293Z,96132.09
2018-12-22T06:07:30.427Z,96129.16
2018-12-22T06:10:00.271Z,96120.20
2018-12-22T06:12:30.086Z,96130.70
2018-12-22T06:14:59.868Z,96125.80
2018-12-22T06:17:29.705Z,96125.60
2018-12-22T06:19:59.630Z,96111.00
2018-12-22T06:22:29.445Z,96095.80
2018-12-22T06:24:59.268Z,96110.19
2018-12-22T06:27:29.153Z,96112.72
2018-12-22T06:29:58.987Z,96111.73
2018-12-22T06:32:28.972Z,96115.63
2018-12-22T06:34:58.931Z,96114.09
2018-12-22T06:37:28.930Z,96131.20
2018-12-22T06:39:58.831Z,96136.28
2018-12-22T06:46:04.945Z,96153.59
2018-12-22T06:48:35.575Z,96153.20
2018-12-22T06:51:05.427Z,96172.27
2018-12-22T06:53:35.437Z,96153.25
2018-12-22T06:56:05.781Z,96164.52
2018-12-22T06:58:35.647Z,96154.97
2018-12-22T07:01:05.449Z,96160.20
2018-12-22T07:03:35.625Z,96155.11
2018-12-22T07:06:05.851Z,96175.35
2018-12-22T07:08:35.795Z,96176.33
2018-12-22T07:11:06.123Z,96168.55
2018-12-22T07:13:36.487Z,96171.81
2018-12-22T07:16:07.488Z,96195.95
2018-12-22T07:18:38.325Z,96186.06
2018-12-22T07:21:08.265Z,96189.56
2018-12-22T07:23:38.053Z,96195.20
2018-12-22T07:26:07.961Z,96197.31
2018-12-22T07:28:37.801Z,96198.34
2018-12-22T07:31:07.639Z,96192.31
2018-12-22T07:37:12.801Z,96231.69
2018-12-22T07:39:42.641Z,96223.13
2018-12-22T07:42:12.495Z,96227.61
2018-12-22T07:44:42.349Z,96221.95
2018-12-22T07:47:12.229Z,96221.39
2018-12-22T07:49:42.149Z,96237.74
2018-12-22T07:52:15.013Z,96249.05
2018-12-22T07:54:44.844Z,96255.45
2018-12-22T07:57:14.977Z,96268.69
2018-12-22T07:59:44.769Z,96279.13
2018-12-22T08:02:16.435Z,96286.85
2018-12-22T08:04:47.479Z,96302.20
2018-12-22T08:07:17.621Z,96307.21
2018-12-22T08:09:47.469Z,96313.88
2018-12-22T08:12:17.479Z,96305.67
2018-12-22T08:14:47.314Z,96310.30
2018-12-22T08:17:17.043Z,96298.19
2018-12-22T08:19:47.178Z,96316.44
2018-12-22T08:22:16.981Z,96347.92
2018-12-22T08:24:46.817Z,96351.83
2018-12-22T08:27:16.683Z,96344.59
2018-12-22T08:29:46.524Z,96356.83
2018-12-22T08:32:16.313Z,96352.48
2018-12-22T08:34:46.133Z,96358.93
2018-12-22T08:37:16.320Z,96375.48
2018-12-22T08:39:47.086Z,96372.98
2018-12-22T08:42:16.830Z,96383.02
2018-12-22T08:44:46.966Z,96386.10
2018-12-22T08:47:17.014Z,96388.20
2018-12-22T08:49:47.101Z,96404.58
2018-12-22T08:52:16.899Z,96403.33
2018-12-22T08:54:46.652Z,96404.00
2018-12-22T08:57:16.599Z,96413.86
2018-12-22T08:59:46.712Z,96411.18
2018-12-22T09:02:16.506Z,96424.55
2018-12-22T09:04:46.255Z,96425.89
2018-12-22T09:07:15.974Z,96424.77
2018-12-22T09:09:46.066Z,96421.08
2018-12-22T09:12:15.800Z,96419.73
2018-12-22T09:14:45.569Z,96431.41
2018-12-22T09:17:15.337Z,96418.77
2018-12-22T09:19:45.070Z,96424.61
2018-12-22T09:22:14.994Z,96432.19
2018-12-22T09:24:45.115Z,96438.20
2018-12-22T09:27:14.966Z,96428.17
2018-12-22T09:29:45.016Z,96433.80
2018-12-22T09:32:15.061Z,96413.79
2018-12-22T09:34:44.869Z,96439.69
2018-12-22T09:37:14.802Z,96430.97
2018-12-22T09:39:44.500Z,96434.31
2018-12-22T09:42:14.208Z,96431.05
2018-12-22T09:48:19.352Z,96444.23
2018-12-22T09:50:49.121Z,96436.08
2018-12-22T09:53:18.886Z,96433.01
2018-12-22T09:55:48.661Z,96429.20
2018-12-22T09:58:18.536Z,96439.97
2018-12-22T10:00:48.436Z,96443.73
2018-12-22T10:03:18.460Z,96452.11
2018-12-22T10:05:48.200Z,96451.48
2018-12-22T10:08:17.976Z,96468.97
2018-12-22T10:10:47.794Z,96457.46
2018-12-22T10:13:17.589Z,96463.53
2018-12-22T10:15:47.746Z,96452.52
2018-12-22T10:18:17.860Z,96444.99
2018-12-22T10:20:47.941Z,96440.23
2018-12-22T10:23:17.737Z,96440.86
2018-12-22T10:25:47.474Z,96446.16
2018-12-22T10:28:17.267Z,96440.67
2018-12-22T10:30:47.084Z,96437.38
2018-12-22T10:33:17.422Z,96437.85
2018-12-22T10:35:47.212Z,96429.62
2018-12-22T10:38:16.986Z,96427.36
2018-12-22T10:40:46.756Z,96423.34
2018-12-22T10:43:17.103Z,96424.53
2018-12-22T10:45:46.852Z,96425.03
2018-12-22T10:48:16.924Z,96429.17
2018-12-22T10:50:46.662Z,96428.21
2018-12-22T10:53:16.428Z,96430.14
2018-12-22T10:55:46.242Z,96420.63
2018-12-22T10:58:16.017Z,96410.52
2018-12-22T11:00:45.800Z,96421.05
2018-12-22T11:03:15.587Z,96431.55
2018-12-22T11:05:45.788Z,96417.33
2018-12-22T11:08:15.549Z,96410.34
2018-12-22T11:10:45.291Z,96414.44
2018-12-22T11:13:15.102Z,96403.14
2018-12-22T11:15:44.924Z,96394.23
2018-12-22T11:18:14.682Z,96393.66
2018-12-22T11:20:44.432Z,96390.94
2018-12-22T11:23:20.415Z,96404.73
2018-12-22T11:25:46.046Z,96393.10
2018-12-22T11:28:15.812Z,96390.95
2018-12-22T11:30:46.072Z,96394.28
2018-12-22T11:33:16.481Z,96387.13
2018-12-22T11:35:46.317Z,96386.52
2018-12-22T11:38:16.636Z,96396.84
2018-12-22T11:40:46.415Z,96393.93
2018-12-22T11:43:16.174Z,96396.65
2018-12-22T11:45:46.363Z,96397.45
2018-12-22T11:49:16.139Z,96392.44
2018-12-22T11:51:45.924Z,96403.51
2018-12-22T11:54:15.802Z,96403.16
2018-12-22T11:56:45.590Z,96406.71
2018-12-22T11:59:15.375Z,96404.42
2018-12-22T12:01:45.427Z,96410.27
2018-12-22T12:04:15.212Z,96403.88
2018-12-22T12:06:45.041Z,96410.87
2018-12-22T12:09:14.878Z,96408.55
2018-12-22T12:11:44.670Z,96411.70
2018-12-22T12:14:14.752Z,96423.91
2018-12-22T12:16:56.202Z,96422.95
2018-12-22T12:19:30.336Z,96424.27
2018-12-22T12:22:00.466Z,96439.07
2018-12-22T12:24:30.903Z,96436.70
2018-12-22T12:27:00.966Z,96435.34
2018-12-22T12:29:31.559Z,96438.67
2018-12-22T12:32:01.626Z,96437.94
2018-12-22T12:34:31.802Z,96449.00
2018-12-22T12:37:02.065Z,96437.01
2018-12-22T12:39:32.101Z,96438.91
2018-12-22T12:42:01.887Z,96451.50
2018-12-22T12:44:31.730Z,96428.14
2018-12-22T12:47:01.586Z,96439.20
2018-12-22T12:49:31.384Z,96437.27
2018-12-22T12:52:02.023Z,96442.93
2018-12-22T12:54:31.854Z,96446.44
2018-12-22T12:57:01.835Z,96451.88
2018-12-22T12:59:33.977Z,96453.03
2018-12-22T13:02:06.765Z,96459.09
2018-12-22T13:04:36.531Z,96457.39
2018-12-22T13:07:06.357Z,96462.88
2018-12-22T13:09:36.257Z,96457.83
2018-12-22T13:12:14.597Z,96464.85
2018-12-22T13:14:47.780Z,96470.88
2018-12-22T13:17:17.920Z,96469.51
2018-12-22T13:19:47.758Z,96473.95
2018-12-22T13:22:17.562Z,96464.77
2018-12-22T13:24:47.384Z,96476.84
2018-12-22T13:27:17.470Z,96470.04
2018-12-22T13:29:47.548Z,96471.23
2018-12-22T13:32:17.608Z,96455.51
2018-12-22T13:34:49.033Z,96456.83
2018-12-22T13:37:19.258Z,96468.34
2018-12-22T13:39:49.064Z,96465.37
2018-12-22T13:42:19.150Z,96468.84
2018-12-22T13:44:48.902Z,96474.30
2018-12-22T13:47:18.714Z,96476.40
2018-12-22T13:49:48.659Z,96481.48
2018-12-22T13:52:19.087Z,96485.36
2018-12-22T13:56:18.328Z,96487.16
2018-12-22T13:58:48.426Z,96491.99
2018-12-22T14:01:22.116Z,96484.61
2018-12-22T14:03:53.149Z,96481.09
2018-12-22T14:06:32.794Z,96481.31
2018-12-22T14:09:06.760Z,96483.47
2018-12-22T14:11:36.855Z,96475.30
2018-12-22T14:14:08.510Z,96488.92
2018-12-22T14:16:49.864Z,96492.08
2018-12-22T14:19:20.938Z,96497.09
2018-12-22T14:21:51.854Z,96491.65
2018-12-22T14:24:43.160Z,96486.20
2018-12-22T14:27:13.366Z,96486.25
2018-12-22T14:29:43.456Z,96482.38
2018-12-22T14:32:13.738Z,96489.76
2018-12-22T14:34:52.075Z,96495.39
2018-12-22T14:37:22.067Z,96497.53
2018-12-22T14:39:52.180Z,96494.59
2018-12-22T14:42:22.370Z,96506.67
2018-12-22T14:44:52.556Z,96507.31
2018-12-22T14:47:22.348Z,96508.30
2018-12-22T14:49:52.158Z,96504.16
2018-12-22T14:52:22.592Z,96502.20
2018-12-22T14:54:52.400Z,96504.16
2018-12-22T14:57:22.335Z,96508.95
2018-12-22T14:59:52.187Z,96515.70
2018-12-22T15:02:22.255Z,96517.05
2018-12-22T15:04:52.147Z,96515.86
2018-12-22T15:07:21.952Z,96517.05
2018-12-22T15:09:51.700Z,96515.88
2018-12-22T15:12:21.796Z,96512.58
2018-12-22T15:14:51.598Z,96526.19
2018-12-22T15:17:21.695Z,96528.34
2018-12-22T15:19:51.473Z,96521.75
2018-12-22T15:22:21.302Z,96524.48
2018-12-22T15:24:51.161Z,96534.00
2018-12-22T15:27:20.898Z,96535.50
2018-12-22T15:29:50.675Z,96529.30
2018-12-22T15:32:20.539Z,96547.18
2018-12-22T15:34:50.563Z,96539.63
2018-12-22T15:37:20.383Z,96542.58
2018-12-22T15:39:50.215Z,96550.98
2018-12-22T15:42:19.988Z,96531.13
2018-12-22T15:44:50.388Z,96549.83
2018-12-22T15:47:20.178Z,96546.27
2018-12-22T15:49:49.958Z,96549.55
2018-12-22T15:52:20.134Z,96553.98
2018-12-22T15:54:50.120Z,96559.25
2018-12-22T15:57:19.877Z,96565.91
2018-12-22T15:59:50.096Z,96569.98
2018-12-22T16:02:19.963Z,96573.50
2018-12-22T16:04:49.801Z,96571.78
2018-12-22T16:07:19.936Z,96565.50
2018-12-22T16:09:49.932Z,96577.34
2018-12-22T16:12:19.802Z,96583.15
2018-12-22T16:14:49.564Z,96591.91
2018-12-22T16:17:19.488Z,96603.73
2018-12-22T16:19:49.536Z,96607.00
2018-12-22T16:22:19.329Z,96603.88
2018-12-22T16:24:49.104Z,96607.52
2018-12-22T16:27:19.220Z,96605.97
2018-12-22T16:29:49.374Z,96616.80
2018-12-22T16:32:19.144Z,96624.31
2018-12-22T16:34:49.180Z,96629.54
2018-12-22T16:37:19.010Z,96626.27
2018-12-22T16:39:48.800Z,96633.35
2018-12-22T16:42:18.934Z,96629.45
2018-12-22T16:44:48.732Z,96634.17
2018-12-22T16:47:19.636Z,96636.53
2018-12-22T16:49:49.497Z,96635.17
2018-12-22T16:52:19.234Z,96638.63
2018-12-22T16:54:49.015Z,96639.72
2018-12-22T16:57:18.777Z,96636.56
2018-12-22T16:59:48.587Z,96635.20
2018-12-22T17:02:30.889Z,96637.32
2018-12-22T17:05:00.632Z,96637.76
2018-12-22T17:07:30.731Z,96636.75
2018-12-22T17:10:00.553Z,96642.82
2018-12-22T17:12:30.409Z,96640.83
2018-12-22T17:15:00.348Z,96645.92
2018-12-22T17:17:30.193Z,96640.02
2018-12-22T17:19:59.997Z,96647.23
2018-12-22T17:22:44.075Z,96649.56
2018-12-22T17:25:23.424Z,96648.42
2018-12-22T17:27:53.273Z,96656.84
2018-12-22T17:30:22.993Z,96659.40
2018-12-22T17:32:52.754Z,96660.59
2018-12-22T17:35:22.755Z,96664.68
2018-12-22T17:37:53.669Z,96663.59
2018-12-22T17:40:24.007Z,96668.47
2018-12-22T17:42:53.846Z,96663.78
2018-12-22T17:45:23.535Z,96666.16
2018-12-22T17:47:53.234Z,96671.79
2018-12-22T17:50:22.942Z,96672.58
2018-12-22T17:52:52.865Z,96682.68
2018-12-22T17:55:22.626Z,96680.12
2018-12-22T17:57:52.387Z,96699.34
2018-12-22T18:00:22.172Z,96698.36
2018-12-22T18:02:52.014Z,96687.25
2018-12-22T18:05:22.104Z,96685.48
2018-12-22T18:07:51.903Z,96689.88
2018-12-22T18:10:21.978Z,96701.34
2018-12-22T18:12:52.210Z,96691.34
2018-12-22T18:15:24.231Z,96691.50
2018-12-22T18:17:54.031Z,96698.08
2018-12-22T18:20:23.756Z,96706.06
2018-12-22T18:22:53.545Z,96705.74
2018-12-22T18:25:23.348Z,96702.17
2018-12-22T18:27:54.168Z,96700.81
2018-12-22T18:30:23.854Z,96697.04
2018-12-22T18:32:53.562Z,96699.98
2018-12-22T18:35:23.302Z,96703.78
2018-12-22T18:37:53.035Z,96700.23
2018-12-22T18:40:24.974Z,96692.80
2018-12-22T18:42:54.737Z,96707.34
2018-12-22T18:45:24.466Z,96713.98
2018-12-22T18:47:54.170Z,96708.96
2018-12-22T18:50:26.580Z,96706.05
2018-12-22T18:52:56.288Z,96715.41
2018-12-22T18:55:26.456Z,96709.91
2018-12-22T18:57:58.862Z,96710.63
2018-12-22T19:00:28.608Z,96727.48
2018-12-22T19:02:58.334Z,96726.63
2018-12-22T19:05:28.074Z,96724.47
2018-12-22T19:08:03.879Z,96719.50
2018-12-22T19:10:51.310Z,96725.31
2018-12-22T19:13:21.098Z,96713.34
2018-12-22T19:15:51.068Z,96716.31
2018-12-22T19:18:20.851Z,96711.25
2018-12-22T19:20:53.230Z,96715.67
2018-12-22T19:23:25.884Z,96710.09
2018-12-22T19:25:55.690Z,96728.77
2018-12-22T19:28:25.731Z,96736.71
2018-12-22T19:30:55.582Z,96718.86
2018-12-22T19:33:25.439Z,96711.72
2018-12-22T19:35:55.280Z,96717.50
2018-12-22T19:38:25.087Z,96720.44
2018-12-22T19:40:55.013Z,96721.98
2018-12-22T19:43:25.642Z,96723.73
2018-12-22T19:45:55.711Z,96729.23
2018-12-22T19:48:25.885Z,96736.80
2018-12-22T19:50:55.698Z,96732.52
2018-12-22T19:53:25.475Z,96723.08
2018-12-22T19:55:55.278Z,96724.52
2018-12-22T19:58:25.339Z,96722.22
2018-12-22T20:00:57.522Z,96734.87
2018-12-22T20:03:27.297Z,96721.98
2018-12-22T20:05:57.062Z,96723.11
2018-12-22T20:08:26.850Z,96731.69
2018-12-22T20:10:56.579Z,96721.67
2018-12-22T20:13:26.380Z,96719.93
2018-12-22T20:15:56.102Z,96726.45
2018-12-22T20:18:26.164Z,96716.93
2018-12-22T20:20:56.050Z,96735.59
2018-12-22T20:23:26.062Z,96754.41
2018-12-22T20:25:55.840Z,96759.44
2018-12-22T20:28:25.616Z,96764.73
2018-12-22T20:30:55.699Z,96761.94
2018-12-22T20:33:25.494Z,96757.58
2018-12-22T20:35:55.820Z,96762.97
2018-12-22T20:38:25.714Z,96748.42
2018-12-22T20:40:55.511Z,96753.45
2018-12-22T20:43:25.313Z,96748.54
2018-12-22T20:45:55.167Z,96753.03
2018-12-22T20:48:24.941Z,96748.06
2018-12-22T20:50:54.700Z,96744.63
2018-12-22T20:53:24.493Z,96748.34
2018-12-22T20:55:54.270Z,96750.94
2018-12-22T20:58:24.106Z,96751.50
2018-12-22T21:00:53.882Z,96764.73
2018-12-22T21:03:32.290Z,96765.14
2018-12-22T21:06:04.674Z,96774.95
2018-12-22T21:08:34.545Z,96780.81
2018-12-22T21:11:04.353Z,96775.52
2018-12-22T21:13:34.128Z,96782.83
2018-12-22T21:16:03.976Z,96774.25
2018-12-22T21:18:34.019Z,96773.83
2018-12-22T21:21:04.596Z,96769.68
2018-12-22T21:23:34.500Z,96765.59
2018-12-22T21:26:04.321Z,96758.01
2018-12-22T21:28:34.399Z,96760.40
2018-12-22T21:31:04.335Z,96751.63
2018-12-22T21:33:34.988Z,96743.47
2018-12-22T21:36:04.841Z,96743.03
2018-12-22T21:38:34.693Z,96746.84
2018-12-22T21:41:04.645Z,96753.56
2018-12-22T21:43:34.553Z,96767.16
2018-12-22T21:46:04.312Z,96775.70
2018-12-22T21:48:34.111Z,96782.49
2018-12-22T21:51:03.940Z,96780.86
2018-12-22T21:53:33.729Z,96768.55
2018-12-22T21:56:03.793Z,96780.22
2018-12-22T21:58:33.641Z,96786.08
2018-12-22T22:01:03.385Z,96791.73
2018-12-22T22:03:33.500Z,96795.17
2018-12-22T22:06:03.665Z,96791.86
2018-12-22T22:08:34.286Z,96792.08
2018-12-22T22:11:04.122Z,96787.66
2018-12-22T22:13:33.877Z,96787.66
2018-12-22T22:16:03.714Z,96786.16
2018-12-22T22:18:33.542Z,96788.34
2018-12-22T22:21:03.376Z,96776.48
2018-12-22T22:23:33.242Z,96777.25
2018-12-22T22:26:03.046Z,96772.41
2018-12-22T22:28:32.862Z,96769.47
2018-12-22T22:31:02.728Z,96761.30
2018-12-22T22:33:32.742Z,96760.66
2018-12-22T22:36:02.840Z,96757.38
2018-12-22T22:38:32.816Z,96762.81
2018-12-22T22:41:02.658Z,96771.34
2018-12-22T22:43:32.520Z,96767.05
2018-12-22T22:46:02.459Z,96763.19
2018-12-22T22:48:32.220Z,96765.69
2018-12-22T22:51:02.365Z,96766.82
2018-12-22T22:53:32.275Z,96773.05
2018-12-22T22:56:02.115Z,96775.27
2018-12-22T22:58:32.209Z,96780.34
2018-12-22T23:01:02.289Z,96782.12
2018-12-22T23:03:32.286Z,96785.06
2018-12-22T23:06:02.316Z,96787.78
2018-12-22T23:08:32.092Z,96781.77
2018-12-22T23:11:02.097Z,96785.41
2018-12-22T23:13:31.992Z,96781.05
2018-12-22T23:16:01.838Z,96791.94
2018-12-22T23:18:32.442Z,96794.80
2018-12-22T23:21:02.248Z,96795.03
2018-12-22T23:23:32.142Z,96805.53
2018-12-22T23:26:02.977Z,96793.56
2018-12-22T23:28:32.914Z,96796.73
2018-12-22T23:31:02.750Z,96799.80
2018-12-22T23:33:32.538Z,96809.31
2018-12-22T23:36:02.422Z,96811.12
2018-12-22T23:38:32.602Z,96808.89
2018-12-22T23:41:03.444Z,96806.69
2018-12-22T23:43:34.160Z,96809.04
2018-12-22T23:46:04.138Z,96816.48
2018-12-22T23:48:34.092Z,96812.25
2018-12-22T23:51:03.976Z,96806.97
2018-12-22T23:54:26.652Z,96813.95
2018-12-22T23:56:56.467Z,96808.66
2018-12-22T23:59:26.305Z,96802.81
